Time;durP1;ratioP1;P1;durP2;ratioP2;P2;SDS_P1;SDS_P2;PMS_P1;PMS_P2;Temp;Humidity;BMP_temperature;BMP_pressure;BME280_temperature;BME280_humidity;BME280_pressure;Samples;Min_cycle;Max_cycle;Signal;HPM_P1;HPM_P2
2022/11/06 00:00:18;;;;;;;17.30;9.60;;;11.80;58.00;;;;;;5081209;28;20542;-89
2022/11/06 00:02:47;;;;;;;38.10;19.50;;;11.80;57.90;;;;;;5105791;28;21098;-89
2022/11/06 00:08:00;;;;;;;36.73;19.77;;;11.50;58.30;;;;;;5094441;28;20570;-89
2022/11/06 00:10:29;;;;;;;36.27;19.10;;;11.20;59.60;;;;;;5079438;28;20558;-90
2022/11/06 00:12:56;;;;;;;22.50;13.47;;;11.10;59.60;;;;;;5099253;28;20486;-92
2022/11/06 00:15:23;;;;;;;25.03;12.97;;;10.80;60.30;;;;;;5082643;28;21103;-88
2022/11/06 00:17:51;;;;;;;18.20;10.13;;;10.90;60.80;;;;;;5076573;28;20476;-89
2022/11/06 00:20:19;;;;;;;13.90;9.67;;;11.20;60.80;;;;;;5083925;28;20559;-91
2022/11/06 00:22:46;;;;;;;21.70;12.20;;;11.40;60.10;;;;;;5077615;28;20443;-88
2022/11/06 00:25:13;;;;;;;21.20;12.53;;;11.40;59.20;;;;;;5081826;28;20538;-90
2022/11/06 00:27:42;;;;;;;21.90;11.57;;;11.60;59.10;;;;;;5080026;28;20501;-91
2022/11/06 00:30:11;;;;;;;19.17;12.00;;;11.60;58.70;;;;;;5096221;28;20459;-88
2022/11/06 00:32:39;;;;;;;21.97;11.80;;;11.70;58.30;;;;;;5094585;28;20449;-90
2022/11/06 00:35:08;;;;;;;20.73;11.20;;;11.70;58.10;;;;;;5085748;28;20485;-90
2022/11/06 00:37:35;;;;;;;19.60;10.60;;;11.70;58.80;;;;;;5099929;28;20537;-88
2022/11/06 00:40:03;;;;;;;25.00;11.70;;;11.60;58.90;;;;;;5098124;28;20482;-89
2022/11/06 00:42:30;;;;;;;41.87;18.77;;;11.40;58.80;;;;;;5074905;28;20451;-91
2022/11/06 00:44:57;;;;;;;25.33;14.23;;;11.20;59.70;;;;;;5070175;28;20813;-89
2022/11/06 00:47:24;;;;;;;18.73;11.10;;;11.40;59.30;;;;;;5096106;28;20479;-90
2022/11/06 00:49:51;;;;;;;19.70;10.93;;;11.40;58.40;;;;;;5097253;28;20466;-89
2022/11/06 00:52:20;;;;;;;21.97;13.00;;;11.50;58.10;;;;;;5097535;28;21051;-89
2022/11/06 00:54:47;;;;;;;31.93;19.90;;;11.50;57.90;;;;;;5092951;28;20501;-89
2022/11/06 00:57:14;;;;;;;36.10;19.73;;;11.50;57.80;;;;;;5103721;28;20479;-90
2022/11/06 00:59:41;;;;;;;46.87;20.97;;;11.50;58.00;;;;;;5076990;28;20466;-90
2022/11/06 01:02:08;;;;;;;66.23;18.20;;;11.50;58.10;;;;;;5093210;28;20539;-89
2022/11/06 01:04:35;;;;;;;29.33;14.37;;;11.50;58.40;;;;;;5094195;28;20508;-92
2022/11/06 01:07:02;;;;;;;22.77;11.30;;;11.50;58.50;;;;;;5085707;28;20519;-91
2022/11/06 01:09:30;;;;;;;26.47;10.50;;;11.60;58.90;;;;;;5074968;28;20460;-90
2022/11/06 01:11:59;;;;;;;16.67;10.20;;;11.60;59.00;;;;;;5099661;28;20592;-90
2022/11/06 01:14:27;;;;;;;19.80;9.40;;;11.60;59.00;;;;;;5091699;28;20829;-89
2022/11/06 01:16:54;;;;;;;48.30;10.10;;;11.60;59.10;;;;;;5092677;28;20448;-89
2022/11/06 01:19:22;;;;;;;27.80;9.63;;;11.60;59.30;;;;;;5104080;28;20439;-91
2022/11/06 01:21:51;;;;;;;18.53;10.73;;;11.60;59.30;;;;;;5092997;28;20629;-89
2022/11/06 01:24:21;;;;;;;158.23;20.70;;;11.60;58.90;;;;;;5091994;28;20458;-90
2022/11/06 01:26:50;;;;;;;265.33;31.17;;;11.10;59.00;;;;;;5103249;28;20447;-89
2022/11/06 01:29:19;;;;;;;94.57;17.20;;;10.60;60.60;;;;;;5086244;28;20467;-90
2022/11/06 01:31:48;;;;;;;28.30;11.33;;;10.60;61.00;;;;;;5087632;28;20470;-93
2022/11/06 01:34:15;;;;;;;24.70;9.03;;;10.70;60.90;;;;;;5087704;28;20469;-89
2022/11/06 01:36:42;;;;;;;12.77;8.10;;;10.90;59.60;;;;;;5082788;28;20460;-89
2022/11/06 01:39:13;;;;;;;16.47;9.30;;;11.00;59.10;;;;;;5068250;28;21025;-91
2022/11/06 01:41:45;;;;;;;11.40;7.33;;;11.00;58.30;;;;;;5074589;28;20680;-90
2022/11/06 01:44:50;;;;;;;13.17;7.87;;;11.00;58.10;;;;;;5099202;28;20463;-90
2022/11/06 01:47:22;;;;;;;17.03;7.57;;;11.10;57.70;;;;;;5101283;28;20549;-91
2022/11/06 01:49:51;;;;;;;20.10;8.13;;;10.90;57.90;;;;;;5086598;28;20458;-91
2022/11/06 01:52:20;;;;;;;20.73;9.30;;;11.00;57.90;;;;;;5102389;27;20451;-89
2022/11/06 01:54:52;;;;;;;19.50;8.70;;;11.00;57.70;;;;;;5105409;28;20499;-89
2022/11/06 01:57:20;;;;;;;12.97;8.30;;;10.80;58.10;;;;;;5100264;28;20453;-91
2022/11/06 01:59:47;;;;;;;18.60;9.90;;;10.70;58.70;;;;;;5097392;28;20471;-89
2022/11/06 02:02:16;;;;;;;16.70;8.93;;;10.70;59.00;;;;;;5087833;28;20531;-89
2022/11/06 02:04:47;;;;;;;18.67;9.33;;;10.80;59.00;;;;;;5093300;28;20459;-91
2022/11/06 02:07:15;;;;;;;42.43;10.77;;;10.90;58.50;;;;;;5103169;28;21153;-93
2022/11/06 02:09:42;;;;;;;19.80;9.53;;;10.80;57.90;;;;;;5082510;28;21058;-90
2022/11/06 02:12:17;;;;;;;19.63;10.20;;;10.80;58.30;;;;;;5085966;28;20452;-89
2022/11/06 02:14:56;;;;;;;13.70;8.90;;;10.90;58.40;;;;;;5080686;28;20534;-89
2022/11/06 02:17:34;;;;;;;24.37;8.97;;;10.90;58.20;;;;;;5096498;28;20814;-90
2022/11/06 02:20:08;;;;;;;90.07;15.53;;;11.00;58.10;;;;;;5078775;28;20975;-90
2022/11/06 02:22:51;;;;;;;122.37;12.80;;;10.80;58.00;;;;;;5088564;28;20469;-90
2022/11/06 02:25:29;;;;;;;31.23;9.63;;;10.80;58.40;;;;;;5088433;28;20534;-88
2022/11/06 02:28:02;;;;;;;35.90;10.70;;;10.80;58.60;;;;;;5072701;28;20825;-89
2022/11/06 02:30:33;;;;;;;102.37;12.87;;;10.80;59.20;;;;;;5079899;28;20470;-92
2022/11/06 02:33:05;;;;;;;17.53;10.60;;;10.70;59.30;;;;;;5101589;28;20477;-90
2022/11/06 02:35:37;;;;;;;195.10;17.33;;;10.70;59.80;;;;;;5087963;28;20540;-89
2022/11/06 02:38:09;;;;;;;28.03;12.20;;;10.40;59.40;;;;;;5087240;28;20439;-89
2022/11/06 02:40:40;;;;;;;25.23;11.27;;;9.90;61.70;;;;;;5073284;28;20977;-90
2022/11/06 02:43:09;;;;;;;140.30;14.93;;;10.10;60.80;;;;;;5091159;28;20462;-88
2022/11/06 02:45:44;;;;;;;22.33;9.20;;;10.10;60.00;;;;;;5088783;28;20460;-90
2022/11/06 02:48:14;;;;;;;32.47;10.60;;;10.30;59.50;;;;;;5100895;28;20439;-90
2022/11/06 02:50:45;;;;;;;29.87;9.53;;;10.50;59.60;;;;;;5070866;28;20527;-89
2022/11/06 02:53:16;;;;;;;52.20;10.43;;;10.60;59.20;;;;;;5090070;28;20471;-93
2022/11/06 02:55:47;;;;;;;16.33;9.87;;;10.60;58.50;;;;;;5101170;28;20455;-89
2022/11/06 02:58:20;;;;;;;15.23;9.03;;;10.60;58.40;;;;;;5076335;28;20453;-90
2022/11/06 03:00:51;;;;;;;41.13;11.37;;;10.60;58.30;;;;;;5096344;28;20987;-89
2022/11/06 03:03:24;;;;;;;40.93;12.30;;;10.50;58.10;;;;;;5102681;28;21048;-89
2022/11/06 03:05:57;;;;;;;53.30;10.80;;;10.20;57.40;;;;;;5094617;28;20437;-92
2022/11/06 03:08:31;;;;;;;16.13;9.10;;;9.60;59.30;;;;;;5095899;27;20538;-89
2022/11/06 03:11:06;;;;;;;13.97;8.77;;;9.30;60.80;;;;;;5060464;28;20472;-89
2022/11/06 03:13:47;;;;;;;14.63;8.30;;;9.60;60.70;;;;;;5093569;28;20850;-90
2022/11/06 03:16:26;;;;;;;32.03;9.60;;;9.80;59.80;;;;;;5096843;28;20467;-89
2022/11/06 03:19:04;;;;;;;41.17;9.77;;;9.90;59.10;;;;;;5097731;28;20451;-88
2022/11/06 03:21:38;;;;;;;16.83;7.50;;;10.00;58.20;;;;;;5098288;28;20486;-89
2022/11/06 03:24:13;;;;;;;81.93;11.97;;;10.10;58.40;;;;;;5087507;28;20446;-92
2022/11/06 03:26:45;;;;;;;41.37;9.87;;;10.10;58.70;;;;;;5098762;28;20537;-89
2022/11/06 03:29:19;;;;;;;38.37;9.50;;;10.20;58.50;;;;;;5071896;28;20443;-94
2022/11/06 03:31:51;;;;;;;152.77;14.53;;;10.30;58.30;;;;;;5099085;28;20463;-89
2022/11/06 03:34:27;;;;;;;113.97;15.27;;;10.20;57.90;;;;;;5081830;28;20447;-89
2022/11/06 03:37:02;;;;;;;227.30;17.13;;;10.20;58.40;;;;;;5095186;28;20474;-91
2022/11/06 03:39:32;;;;;;;72.47;10.47;;;9.90;59.70;;;;;;5068931;28;20536;-90
2022/11/06 03:42:05;;;;;;;26.80;8.47;;;10.00;59.30;;;;;;5080550;28;20446;-88
2022/11/06 03:44:38;;;;;;;22.50;9.00;;;10.10;59.00;;;;;;5074671;28;20479;-88
2022/11/06 03:47:12;;;;;;;29.43;11.70;;;10.10;59.10;;;;;;5092225;28;20929;-90
2022/11/06 03:49:43;;;;;;;115.07;19.03;;;10.10;59.80;;;;;;5084277;28;20443;-90
2022/11/06 03:52:14;;;;;;;102.53;15.20;;;10.00;59.40;;;;;;5080316;28;20983;-90
2022/11/06 03:54:47;;;;;;;76.20;12.27;;;9.60;60.80;;;;;;5095561;28;20525;-91
2022/11/06 03:57:19;;;;;;;168.73;15.70;;;9.30;61.50;;;;;;5068739;28;20896;-90
2022/11/06 03:59:53;;;;;;;74.27;12.87;;;8.90;62.60;;;;;;5101589;28;20486;-91
2022/11/06 04:02:21;;;;;;;57.53;10.33;;;9.20;62.80;;;;;;5086742;28;20472;-90
2022/11/06 04:04:53;;;;;;;52.47;16.30;;;9.30;63.00;;;;;;5095223;28;20462;-90
2022/11/06 04:07:24;;;;;;;69.67;15.40;;;9.40;63.50;;;;;;5066324;28;20435;-89
2022/11/06 04:15:32;;;;;;;73.97;13.00;;;9.10;63.40;;;;;;5092652;28;20439;-91
2022/11/06 04:18:00;;;;;;;49.67;10.30;;;9.00;63.80;;;;;;5103611;28;20452;-89
2022/11/06 04:23:30;;;;;;;20.37;9.20;;;8.90;63.80;;;;;;5089367;28;20443;-92
2022/11/06 04:28:58;;;;;;;53.73;12.90;;;9.60;62.50;;;;;;5098752;28;20447;-91
2022/11/06 04:31:34;;;;;;;32.70;10.97;;;9.30;62.40;;;;;;5079236;28;21059;-91
2022/11/06 04:34:07;;;;;;;60.43;11.40;;;9.00;63.20;;;;;;5078519;28;20439;-89
2022/11/06 04:36:43;;;;;;;60.90;12.13;;;8.80;63.40;;;;;;5095098;28;20476;-91
2022/11/06 04:39:17;;;;;;;90.87;12.47;;;9.10;63.60;;;;;;5100629;28;20442;-91
2022/11/06 04:41:53;;;;;;;62.33;13.47;;;9.30;63.00;;;;;;5066735;28;20479;-91
2022/11/06 04:44:28;;;;;;;84.00;11.00;;;9.60;61.80;;;;;;5093614;28;20994;-89
2022/11/06 04:47:00;;;;;;;44.33;10.20;;;9.60;61.80;;;;;;5064210;28;20446;-90
2022/11/06 04:49:29;;;;;;;70.97;13.10;;;9.40;62.30;;;;;;5096813;28;20451;-91
2022/11/06 04:51:57;;;;;;;68.00;11.57;;;9.40;62.40;;;;;;5068014;28;20486;-91
2022/11/06 04:54:25;;;;;;;34.17;11.67;;;9.30;62.30;;;;;;5093150;28;20460;-90
2022/11/06 04:56:58;;;;;;;26.33;8.80;;;9.50;62.20;;;;;;5078573;28;20473;-92
2022/11/06 04:59:26;;;;;;;28.27;9.57;;;9.70;62.00;;;;;;5086359;28;20451;-90
2022/11/06 05:01:53;;;;;;;100.17;13.00;;;9.80;61.50;;;;;;5062947;28;20464;-91
2022/11/06 05:04:21;;;;;;;75.00;14.93;;;9.60;60.80;;;;;;5084232;28;20504;-89
2022/11/06 05:06:48;;;;;;;53.60;11.13;;;9.50;61.10;;;;;;5095972;28;21920;-89
2022/11/06 05:09:15;;;;;;;123.50;13.53;;;9.20;61.50;;;;;;5095855;28;20455;-89
2022/11/06 05:11:42;;;;;;;29.23;9.23;;;8.90;62.20;;;;;;5064642;28;20821;-89
2022/11/06 05:14:10;;;;;;;122.03;12.30;;;8.80;62.60;;;;;;5095332;28;20527;-90
2022/11/06 05:16:37;;;;;;;89.30;10.43;;;8.90;61.70;;;;;;5102854;28;21233;-89
2022/11/06 05:19:04;;;;;;;226.80;14.20;;;8.90;62.10;;;;;;5084496;28;21238;-90
2022/11/06 05:24:17;;;;;;;55.73;12.07;;;8.50;63.20;;;;;;5096886;28;20442;-90
2022/11/06 05:26:44;;;;;;;89.90;10.27;;;8.60;63.50;;;;;;5094046;28;21191;-91
2022/11/06 05:29:11;;;;;;;34.33;10.83;;;8.60;64.20;;;;;;5101018;28;20452;-90
2022/11/06 05:31:38;;;;;;;128.90;12.80;;;8.80;63.90;;;;;;5070917;28;20927;-92
2022/11/06 05:34:05;;;;;;;79.83;11.47;;;9.10;63.60;;;;;;5095665;28;20955;-90
2022/11/06 05:36:34;;;;;;;52.83;8.87;;;9.20;61.80;;;;;;5096084;28;20460;-90
2022/11/06 05:39:01;;;;;;;97.10;12.67;;;9.00;61.70;;;;;;5069915;28;20439;-90
2022/11/06 05:41:28;;;;;;;54.10;10.07;;;9.00;62.10;;;;;;5085914;28;20467;-90
2022/11/06 05:43:55;;;;;;;27.93;8.97;;;9.10;61.50;;;;;;5092626;28;20529;-90
2022/11/06 05:46:22;;;;;;;54.10;9.90;;;8.80;62.00;;;;;;5068613;28;20530;-89
2022/11/06 05:48:49;;;;;;;54.57;11.77;;;8.70;62.70;;;;;;5089987;28;20973;-91
2022/11/06 05:51:16;;;;;;;47.73;10.27;;;8.70;62.60;;;;;;5083002;28;20479;-89
2022/11/06 05:53:44;;;;;;;25.30;8.10;;;8.60;63.00;;;;;;5081360;28;20463;-91
2022/11/06 05:56:12;;;;;;;61.17;10.50;;;8.70;63.00;;;;;;5100871;28;20566;-90
2022/11/06 05:58:39;;;;;;;130.90;16.80;;;8.60;62.30;;;;;;5091192;28;20546;-89
2022/11/06 06:01:06;;;;;;;57.83;11.10;;;8.30;62.60;;;;;;5099399;28;20462;-89
2022/11/06 06:03:33;;;;;;;118.93;15.43;;;8.30;63.70;;;;;;5100846;28;20446;-90
2022/11/06 06:06:00;;;;;;;80.87;14.60;;;8.40;63.00;;;;;;5081003;28;20439;-90
2022/11/06 06:08:27;;;;;;;76.63;11.10;;;8.30;63.40;;;;;;5097748;28;20451;-89
2022/11/06 06:10:55;;;;;;;93.63;8.53;;;8.30;63.20;;;;;;5069862;28;20478;-93
2022/11/06 06:13:22;;;;;;;154.70;13.10;;;8.30;63.20;;;;;;5101389;28;20496;-90
2022/11/06 06:15:49;;;;;;;61.23;9.90;;;8.10;63.00;;;;;;5087445;28;21000;-91
2022/11/06 06:18:16;;;;;;;12.83;7.17;;;8.10;63.80;;;;;;5099143;28;20530;-90
2022/11/06 06:20:43;;;;;;;38.27;9.03;;;8.20;64.10;;;;;;5098704;27;20473;-92
2022/11/06 06:23:10;;;;;;;76.97;13.17;;;8.30;63.50;;;;;;5088270;28;20854;-90
2022/11/06 06:25:37;;;;;;;157.93;14.27;;;8.40;63.20;;;;;;5099821;28;20489;-89
2022/11/06 06:28:06;;;;;;;196.60;13.67;;;8.70;62.20;;;;;;5097677;28;20448;-90
2022/11/06 06:30:34;;;;;;;120.30;11.13;;;8.70;61.10;;;;;;5084402;28;20965;-91
2022/11/06 06:33:05;;;;;;;56.27;11.33;;;8.60;61.90;;;;;;5084243;28;20446;-90
2022/11/06 06:35:32;;;;;;;58.57;9.60;;;8.80;61.80;;;;;;5097365;28;20451;-89
2022/11/06 06:37:59;;;;;;;30.90;8.53;;;8.80;61.80;;;;;;5084652;28;20462;-91
2022/11/06 06:40:28;;;;;;;168.97;11.90;;;8.70;61.70;;;;;;5101107;28;21275;-94
2022/11/06 06:42:56;;;;;;;63.27;9.83;;;8.70;61.30;;;;;;5086960;28;20792;-90
2022/11/06 06:45:25;;;;;;;77.20;11.00;;;8.50;61.70;;;;;;5101956;28;20505;-90
2022/11/06 06:47:54;;;;;;;94.70;12.37;;;8.50;62.30;;;;;;5093349;28;20428;-90
2022/11/06 06:50:21;;;;;;;152.90;12.27;;;8.40;62.50;;;;;;5099382;28;20532;-90
2022/11/06 06:52:48;;;;;;;133.60;11.27;;;8.50;62.60;;;;;;5063501;28;20451;-89
2022/11/06 06:55:16;;;;;;;35.50;7.63;;;8.40;63.00;;;;;;5075481;28;20933;-89
2022/11/06 06:57:43;;;;;;;39.13;10.23;;;8.50;63.00;;;;;;5078811;28;20464;-90
2022/11/06 07:00:11;;;;;;;86.37;14.90;;;8.30;63.10;;;;;;5086806;28;20475;-92
2022/11/06 07:02:40;;;;;;;83.17;16.90;;;8.50;63.40;;;;;;5073880;28;20447;-88
2022/11/06 07:05:07;;;;;;;39.30;16.00;;;8.60;62.50;;;;;;5098244;28;20517;-93
2022/11/06 07:07:36;;;;;;;173.97;17.03;;;8.70;62.50;;;;;;5072458;28;20443;-88
2022/11/06 07:10:04;;;;;;;78.83;13.90;;;8.60;61.30;;;;;;5088570;28;20466;-90
2022/11/06 07:12:31;;;;;;;46.60;10.40;;;8.60;62.30;;;;;;5096857;28;20636;-91
2022/11/06 07:14:58;;;;;;;28.50;11.20;;;8.90;62.00;;;;;;5072704;28;20506;-89
2022/11/06 07:17:25;;;;;;;40.87;9.30;;;9.00;61.20;;;;;;5103931;28;20475;-90
2022/11/06 07:19:54;;;;;;;15.27;10.47;;;9.10;60.80;;;;;;5070699;28;20472;-89
2022/11/06 07:22:21;;;;;;;12.47;7.33;;;9.20;60.60;;;;;;5099890;28;20470;-89
2022/11/06 07:24:48;;;;;;;19.97;13.53;;;9.30;60.20;;;;;;5089131;28;20444;-90
2022/11/06 07:27:15;;;;;;;28.20;12.50;;;9.40;60.00;;;;;;5083853;28;20447;-89
2022/11/06 07:29:42;;;;;;;29.20;15.97;;;9.40;59.40;;;;;;5081039;28;20450;-92
2022/11/06 07:32:09;;;;;;;49.10;30.13;;;9.50;59.30;;;;;;5083266;28;20694;-93
2022/11/06 07:34:37;;;;;;;19.77;13.87;;;9.60;58.50;;;;;;5082828;28;20446;-90
2022/11/06 07:37:06;;;;;;;14.60;6.40;;;9.50;58.60;;;;;;5110140;28;20807;-90
2022/11/06 07:39:34;;;;;;;22.73;12.00;;;9.50;58.90;;;;;;5089959;28;20810;-90
2022/11/06 07:42:02;;;;;;;28.17;11.53;;;9.50;59.00;;;;;;5098968;28;20446;-90
2022/11/06 07:44:35;;;;;;;15.10;8.80;;;9.00;59.40;;;;;;5082808;28;20448;-90
2022/11/06 07:47:02;;;;;;;26.53;8.80;;;8.80;60.20;;;;;;5103986;28;20449;-89
2022/11/06 07:49:29;;;;;;;24.07;10.67;;;8.60;60.30;;;;;;5099344;28;20950;-92
2022/11/06 07:51:56;;;;;;;27.33;10.07;;;8.40;61.50;;;;;;5071875;28;20470;-94
2022/11/06 07:54:25;;;;;;;16.70;9.27;;;8.50;61.70;;;;;;5080886;28;20459;-91
2022/11/06 07:56:52;;;;;;;22.63;10.37;;;8.80;61.50;;;;;;5070013;28;20482;-91
2022/11/06 07:59:20;;;;;;;19.77;11.40;;;8.70;61.00;;;;;;5065358;28;21496;-90
2022/11/06 08:01:47;;;;;;;18.50;10.13;;;8.50;61.30;;;;;;5096651;28;21045;-92
2022/11/06 08:04:14;;;;;;;16.33;7.70;;;8.80;61.50;;;;;;5085827;28;20542;-91
2022/11/06 08:06:41;;;;;;;18.03;7.30;;;8.50;61.60;;;;;;5080689;28;20452;-91
2022/11/06 08:09:09;;;;;;;16.53;8.60;;;8.60;62.50;;;;;;5086645;28;20447;-90
2022/11/06 08:11:37;;;;;;;24.20;9.10;;;9.00;62.50;;;;;;5084593;28;20475;-92
2022/11/06 08:14:04;;;;;;;13.20;7.93;;;9.20;61.80;;;;;;5084270;28;20873;-91
2022/11/06 08:16:32;;;;;;;113.73;11.57;;;9.30;61.30;;;;;;5082970;28;20644;-89
2022/11/06 08:18:59;;;;;;;73.20;15.30;;;9.40;60.00;;;;;;5097621;28;20446;-91
2022/11/06 08:21:26;;;;;;;32.83;11.60;;;9.10;61.30;;;;;;5099383;28;21107;-90
2022/11/06 08:23:53;;;;;;;25.90;14.07;;;9.30;61.60;;;;;;5077995;28;20533;-92
2022/11/06 08:26:20;;;;;;;31.47;11.43;;;9.30;62.00;;;;;;5066857;28;21223;-90
2022/11/06 08:28:49;;;;;;;19.83;9.07;;;9.50;61.50;;;;;;5082995;28;20454;-89
2022/11/06 08:31:16;;;;;;;22.73;11.03;;;9.80;61.00;;;;;;5088809;28;20532;-90
2022/11/06 08:33:43;;;;;;;25.27;9.20;;;9.90;60.40;;;;;;5092192;28;20482;-90
2022/11/06 08:36:10;;;;;;;30.03;10.43;;;9.60;59.80;;;;;;5095407;28;20447;-90
2022/11/06 08:38:37;;;;;;;36.97;9.97;;;9.60;60.70;;;;;;5097282;28;21084;-90
2022/11/06 08:41:05;;;;;;;19.63;12.07;;;9.80;61.00;;;;;;5083756;28;20476;-91
2022/11/06 08:43:33;;;;;;;145.77;34.70;;;9.90;61.10;;;;;;5094610;28;20811;-89
2022/11/06 08:46:02;;;;;;;30.70;12.73;;;9.50;61.50;;;;;;5100335;28;20455;-91
2022/11/06 08:48:29;;;;;;;34.83;14.10;;;9.60;62.80;;;;;;5092378;28;20439;-89
2022/11/06 08:50:56;;;;;;;40.33;14.30;;;9.50;62.40;;;;;;5088083;28;20481;-91
2022/11/06 08:53:24;;;;;;;28.73;12.37;;;9.30;63.50;;;;;;5098134;28;20478;-91
2022/11/06 08:55:51;;;;;;;18.93;10.37;;;9.30;62.90;;;;;;5075854;28;20511;-92
2022/11/06 08:58:18;;;;;;;23.30;10.90;;;9.20;63.30;;;;;;5091548;28;20471;-91
2022/11/06 09:00:45;;;;;;;29.63;11.23;;;9.10;64.20;;;;;;5072016;28;20455;-89
2022/11/06 09:03:17;;;;;;;29.83;11.17;;;9.40;64.00;;;;;;5080683;28;20444;-89
2022/11/06 09:05:44;;;;;;;30.63;10.43;;;9.50;63.00;;;;;;5093441;28;20463;-91
2022/11/06 09:08:12;;;;;;;20.93;12.53;;;9.30;62.80;;;;;;5089664;28;20772;-92
2022/11/06 09:10:41;;;;;;;24.73;11.77;;;9.20;63.50;;;;;;5062502;28;20558;-91
2022/11/06 09:13:08;;;;;;;16.97;10.03;;;9.50;63.70;;;;;;5066265;28;20550;-88
2022/11/06 09:15:36;;;;;;;31.63;10.30;;;9.50;63.30;;;;;;5062036;28;20456;-92
2022/11/06 09:18:03;;;;;;;18.67;10.50;;;9.70;63.60;;;;;;5093586;28;20467;-88
2022/11/06 09:20:32;;;;;;;25.17;11.70;;;10.00;61.60;;;;;;5099700;28;22125;-89
2022/11/06 09:23:02;;;;;;;23.17;12.10;;;9.80;62.60;;;;;;5073789;28;20473;-90
2022/11/06 09:25:29;;;;;;;27.27;13.77;;;9.60;63.40;;;;;;5087138;28;20436;-92
2022/11/06 09:27:57;;;;;;;32.43;12.97;;;9.60;64.60;;;;;;5094144;28;20451;-91
2022/11/06 09:30:25;;;;;;;47.10;20.60;;;9.70;63.80;;;;;;5102264;28;20467;-89
2022/11/06 09:32:54;;;;;;;51.90;22.93;;;9.60;64.30;;;;;;5101647;28;20472;-88
2022/11/06 09:35:23;;;;;;;26.60;11.83;;;9.60;65.00;;;;;;5100327;28;20513;-88
2022/11/06 09:37:52;;;;;;;20.40;11.93;;;9.70;64.40;;;;;;5106896;28;20540;-88
2022/11/06 09:40:22;;;;;;;34.97;10.60;;;9.60;64.40;;;;;;5068715;28;20467;-89
2022/11/06 09:42:59;;;;;;;23.53;12.50;;;9.50;65.20;;;;;;5091968;28;20482;-92
2022/11/06 09:45:30;;;;;;;29.73;12.13;;;9.70;65.40;;;;;;5090241;28;20438;-89
2022/11/06 09:48:02;;;;;;;17.93;11.97;;;9.60;64.70;;;;;;5093758;28;20439;-89
2022/11/06 09:50:33;;;;;;;21.40;12.07;;;9.40;65.60;;;;;;5104736;28;20489;-92
2022/11/06 09:53:06;;;;;;;34.37;12.93;;;9.50;65.80;;;;;;5091195;28;21201;-92
2022/11/06 09:55:38;;;;;;;23.80;11.70;;;9.40;65.10;;;;;;5104665;28;20481;-89
2022/11/06 09:58:13;;;;;;;21.90;12.37;;;9.60;64.90;;;;;;5111862;28;21335;-89
2022/11/06 10:00:40;;;;;;;33.90;14.13;;;9.80;65.20;;;;;;5109623;28;20507;-89
2022/11/06 10:03:16;;;;;;;22.00;12.33;;;9.90;64.60;;;;;;5111730;28;20450;-89
2022/11/06 10:05:44;;;;;;;18.83;11.07;;;10.00;62.30;;;;;;5109103;28;21013;-89
2022/11/06 10:08:17;;;;;;;28.13;11.30;;;10.00;63.60;;;;;;5073395;28;20997;-92
2022/11/06 10:10:54;;;;;;;33.03;13.90;;;9.80;63.90;;;;;;5109720;28;20474;-89
2022/11/06 10:13:44;;;;;;;39.97;11.60;;;9.40;65.30;;;;;;5108208;28;20461;-89
2022/11/06 10:16:21;;;;;;;26.17;12.90;;;9.50;65.20;;;;;;5089512;28;20464;-89
2022/11/06 10:19:00;;;;;;;37.27;10.83;;;9.50;65.70;;;;;;5082327;28;22158;-89
2022/11/06 10:21:35;;;;;;;18.07;8.67;;;9.70;65.70;;;;;;5105785;28;20820;-89
2022/11/06 10:24:14;;;;;;;21.30;11.33;;;10.20;63.70;;;;;;5074071;28;20442;-90
2022/11/06 10:26:49;;;;;;;22.80;11.30;;;10.20;62.80;;;;;;5076077;28;20451;-89
2022/11/06 10:29:40;;;;;;;21.93;14.07;;;10.40;62.60;;;;;;5071055;28;20955;-90
2022/11/06 10:32:30;;;;;;;19.87;10.47;;;10.30;62.40;;;;;;5089000;28;20458;-89
2022/11/06 10:35:03;;;;;;;21.17;11.20;;;10.30;62.50;;;;;;5102942;28;20463;-89
2022/11/06 10:37:35;;;;;;;22.47;12.20;;;10.40;63.20;;;;;;5095018;28;20471;-90
2022/11/06 10:40:14;;;;;;;20.73;11.20;;;10.70;62.10;;;;;;5092787;28;20471;-90
2022/11/06 10:42:42;;;;;;;25.53;12.40;;;10.70;62.50;;;;;;5108127;28;20449;-91
2022/11/06 10:45:14;;;;;;;25.00;12.43;;;10.90;61.50;;;;;;5101808;28;20446;-89
2022/11/06 10:47:46;;;;;;;22.27;12.27;;;10.50;62.20;;;;;;5098939;28;20498;-90
2022/11/06 10:50:16;;;;;;;19.00;11.33;;;10.50;62.70;;;;;;5088018;28;20479;-91
2022/11/06 10:52:52;;;;;;;22.13;11.70;;;10.50;63.30;;;;;;5070755;28;20480;-90
2022/11/06 10:55:58;;;;;;;20.07;10.50;;;10.90;62.60;;;;;;5090944;28;20455;-88
2022/11/06 10:58:28;;;;;;;19.23;10.97;;;11.10;61.60;;;;;;5102278;28;20827;-90
2022/11/06 11:01:05;;;;;;;24.33;12.37;;;11.30;61.40;;;;;;5106493;28;20474;-89
2022/11/06 11:03:35;;;;;;;20.23;12.70;;;11.40;61.40;;;;;;5071995;28;20563;-89
2022/11/06 11:06:03;;;;;;;17.90;11.57;;;11.20;61.60;;;;;;5104480;28;20447;-91
2022/11/06 11:08:36;;;;;;;19.97;11.00;;;11.20;61.80;;;;;;5099033;28;20446;-90
2022/11/06 11:11:06;;;;;;;23.40;13.13;;;11.00;61.50;;;;;;5085787;28;20849;-89
2022/11/06 11:13:34;;;;;;;25.40;12.50;;;11.00;62.30;;;;;;5097631;28;20440;-89
2022/11/06 11:16:03;;;;;;;18.20;10.67;;;10.90;62.30;;;;;;5087862;28;20454;-89
2022/11/06 11:18:33;;;;;;;20.43;13.67;;;10.70;63.10;;;;;;5088298;28;20868;-90
2022/11/06 11:21:23;;;;;;;20.70;10.90;;;10.70;63.70;;;;;;5091387;28;20478;-90
2022/11/06 11:24:06;;;;;;;19.50;12.67;;;10.80;64.00;;;;;;5120687;27;20442;-90
2022/11/06 11:26:38;;;;;;;15.90;10.10;;;10.70;64.40;;;;;;5082420;28;21240;-90
2022/11/06 11:29:14;;;;;;;23.33;12.13;;;11.00;64.50;;;;;;5093487;28;20439;-90
2022/11/06 11:31:47;;;;;;;18.70;12.07;;;11.10;63.20;;;;;;5089637;28;20517;-90
2022/11/06 11:34:18;;;;;;;21.80;13.03;;;11.30;63.70;;;;;;5088827;28;20454;-93
2022/11/06 11:36:56;;;;;;;21.33;13.13;;;11.50;62.90;;;;;;5091718;28;20451;-91
2022/11/06 11:39:28;;;;;;;19.80;10.83;;;11.60;62.40;;;;;;5089127;28;20470;-90
2022/11/06 11:42:17;;;;;;;19.77;11.93;;;11.60;63.00;;;;;;5108800;28;20478;-91
2022/11/06 11:44:44;;;;;;;20.20;11.27;;;11.50;63.10;;;;;;5089510;28;20888;-89
2022/11/06 11:47:21;;;;;;;18.97;11.53;;;11.30;64.30;;;;;;5071262;28;20447;-90
2022/11/06 11:49:48;;;;;;;18.20;10.87;;;11.30;64.20;;;;;;5076063;28;20430;-89
2022/11/06 11:52:20;;;;;;;18.03;11.83;;;11.20;64.80;;;;;;5102827;28;20479;-91
2022/11/06 11:54:51;;;;;;;16.87;11.13;;;11.60;64.30;;;;;;5080620;28;20452;-89
2022/11/06 11:57:22;;;;;;;15.60;10.77;;;11.90;63.60;;;;;;5089758;28;20438;-88
2022/11/06 11:59:53;;;;;;;17.53;10.80;;;12.10;62.80;;;;;;5107924;28;20546;-91
2022/11/06 12:02:25;;;;;;;20.37;14.13;;;12.10;63.40;;;;;;5106114;28;20931;-89
2022/11/06 12:04:55;;;;;;;19.10;13.70;;;12.10;62.90;;;;;;5087459;28;20523;-90
2022/11/06 12:07:27;;;;;;;21.50;10.90;;;12.30;62.80;;;;;;5089511;28;20446;-91
2022/11/06 12:09:55;;;;;;;22.43;14.87;;;12.20;62.60;;;;;;5107675;27;20462;-90
2022/11/06 12:12:28;;;;;;;21.20;12.17;;;12.20;63.30;;;;;;5100761;27;20468;-93
2022/11/06 12:15:07;;;;;;;20.37;12.83;;;12.30;63.10;;;;;;5070346;28;20462;-89
2022/11/06 12:17:38;;;;;;;18.57;11.57;;;12.50;62.30;;;;;;5086710;28;20497;-90
2022/11/06 12:20:14;;;;;;;21.00;12.27;;;12.70;61.60;;;;;;5098478;28;20459;-88
2022/11/06 12:22:46;;;;;;;17.57;11.70;;;12.80;61.80;;;;;;5099847;28;20938;-91
2022/11/06 12:25:16;;;;;;;18.60;12.50;;;12.60;61.20;;;;;;5100609;28;21073;-91
2022/11/06 12:27:49;;;;;;;18.23;12.30;;;12.30;62.10;;;;;;5101539;28;20938;-88
2022/11/06 12:30:18;;;;;;;14.07;10.97;;;12.50;62.80;;;;;;5081509;28;20471;-90
2022/11/06 12:33:00;;;;;;;19.23;12.13;;;12.80;62.00;;;;;;5097552;28;20876;-89
2022/11/06 12:35:29;;;;;;;19.93;13.47;;;12.80;62.30;;;;;;5071096;28;20459;-89
2022/11/06 12:38:05;;;;;;;20.53;12.87;;;13.10;62.00;;;;;;5084991;28;21036;-89
2022/11/06 12:40:37;;;;;;;20.23;12.50;;;13.50;60.90;;;;;;5109746;27;20463;-88
2022/11/06 12:43:14;;;;;;;18.20;12.27;;;13.40;60.20;;;;;;5088957;28;20458;-92
2022/11/06 12:46:07;;;;;;;23.00;13.20;;;13.50;60.20;;;;;;5081498;28;20451;-89
2022/11/06 12:48:49;;;;;;;15.50;10.10;;;13.90;60.10;;;;;;5088256;28;20436;-89
2022/11/06 12:51:23;;;;;;;15.73;9.47;;;14.00;58.80;;;;;;5095893;28;20475;-89
2022/11/06 12:54:02;;;;;;;18.40;10.57;;;13.80;59.40;;;;;;5101920;28;20868;-89
2022/11/06 12:56:42;;;;;;;15.63;10.70;;;13.80;59.80;;;;;;5092907;28;20475;-89
2022/11/06 12:59:22;;;;;;;15.50;9.90;;;14.10;59.90;;;;;;5066418;28;20481;-90
2022/11/06 13:01:59;;;;;;;16.97;10.00;;;14.50;59.20;;;;;;5088082;28;20473;-90
2022/11/06 13:04:38;;;;;;;16.23;11.70;;;14.70;58.40;;;;;;5083748;28;20438;-89
2022/11/06 13:07:28;;;;;;;15.80;10.63;;;14.50;57.90;;;;;;5078570;28;20458;-90